KBTV/BTV METAR and TAF weather

Enter ICAO airport designator
Station Type Date Time Source
KBTV METAR 2022/12/04 10:54 UTC NOAA

KBTV 041054Z 36006KT 9SM -SN BKN032 OVC040 00/M07 A3016 RMK AO2 SNB12E17B22 SLP215 P0000 T00001067


Station Type Date Time Source
KBTV Decoded METAR 2022/12/04 10:54 UTC NOAA

BURLINGTON INTERNATIONAL, VT, United States (KBTV) 44-28N 73-09W 105M
Dec 04, 2022 - 05:54 AM EST / 2022.12.04 1054 UTC
Wind: from the N (360 degrees) at 7 MPH (6 KT):0
Visibility: 9 mile(s):0
Sky conditions: overcast
Weather: light snow
Precipitation last hour: A trace
Temperature: 32.0 F (0.0 C)
Windchill: 24 F (-4 C):1
Dew Point: 19.9 F (-6.7 C)
Relative Humidity: 60%
Pressure (altimeter): 30.16 in. Hg (1021 hPa)
ob: KBTV 041054Z 36006KT 9SM -SN BKN032 OVC040 00/M07 A3016 RMK AO2 SNB12E17B22 SLP215 P0000 T00001067
cycle: 11

Station Type Date Time Source
KBTV TAF 2022/12/04 06:22 UTC NOAA

TAF KBTV 040520Z 0406/0506 30011G18KT P6SM OVC050
FM040800 31008G16KT P6SM VCSH SCT025 OVC035
FM041000 32008KT P6SM BKN035
FM041900 19005KT P6SM SCT045

Example: see airport list